Piasa, Illinois
Current Conditions -  °F | °C
As of 3:35 AM on Monday 20 Oct 2014 (Local Time) from KALN Reporting Station
Scattered Clouds Scattered Clouds  
Wind Chill: 54°   Ceiling: Unl
Heat Index: 54°   Visibility: 10mi
Dew Point: 47°   Wind: 8mph
Humidity: 76%   Direction: 210°SSW
Pressure: 29.98"   Gusts: NA
Location:  39.12°N, 90.12°W
Report Text: KALN 200835Z AUTO 21007KT 10SM SCT120 12/08 A2998 RMK AO2 T01240083
Loading
Personal Weather Stations






























Interactive Weather Map
Tropical Storm Tracking
New forecast layout! Learn more

10-Day Weather Forecast

Advertisements
Track Severe Weather on mobile